Time;durP1;ratioP1;P1;durP2;ratioP2;P2;SDS_P1;SDS_P2;PMS_P1;PMS_P2;Temp;Humidity;BMP_temperature;BMP_pressure;BME280_temperature;BME280_humidity;BME280_pressure;Samples;Min_cycle;Max_cycle;Signal;HPM_P1;HPM_P2
2024/04/20 06:35:45;;;;;;;1.92;0.60;;;;;;;;;;13490636;21;20001;-80
2024/04/20 06:40:48;;;;;;;1.93;0.87;;;;;;;;;;13546374;21;20008;-81
2024/04/20 06:45:49;;;;;;;1.63;0.70;;;;;;;;;;13540638;21;20229;-81
2024/04/20 06:50:50;;;;;;;;;;;;;;;;;;13522675;22;20012;-80
2024/04/20 06:55:56;;;;;;;2.05;0.70;;;;;;;;;;13516603;21;19921;-82
2024/04/20 07:00:57;;;;;;;2.10;0.98;;;;;;;;;;13514538;22;20008;-80
2024/04/20 07:05:58;;;;;;;;;;;;;;;;;;13516951;21;20399;-81
2024/04/20 07:11:00;;;;;;;2.05;0.70;;;;;;;;;;13513918;22;19929;-83
2024/04/20 07:16:02;;;;;;;2.10;0.85;;;;;;;;;;13521737;21;20036;-80
2024/04/20 07:21:06;;;;;;;1.33;0.70;;;;;;;;;;13511583;22;19993;-80
2024/04/20 07:26:08;;;;;;;1.83;0.60;;;;;;;;;;13519230;21;20305;-80
2024/04/20 07:31:09;;;;;;;1.83;1.08;;;;;;;;;;13522705;21;20016;-81
2024/04/20 07:36:10;;;;;;;4.10;1.33;;;;;;;;;;13524461;22;20433;-81
2024/04/20 07:41:11;;;;;;;2.45;0.70;;;;;;;;;;13527905;21;20007;-80
2024/04/20 07:46:12;;;;;;;5.10;0.90;;;;;;;;;;13538798;21;19993;-79
2024/04/20 07:51:13;;;;;;;1.40;0.68;;;;;;;;;;13535575;21;20000;-79
2024/04/20 07:56:14;;;;;;;1.42;0.70;;;;;;;;;;13532196;21;19992;-79
2024/04/20 08:01:15;;;;;;;;;;;;;;;;;;13525695;21;19997;-78
2024/04/20 08:06:16;;;;;;;2.03;0.57;;;;;;;;;;13523212;21;19929;-80
2024/04/20 08:11:17;;;;;;;;;;;;;;;;;;13521032;21;20326;-79
2024/04/20 08:16:19;;;;;;;2.97;1.10;;;;;;;;;;13518290;21;19922;-80
2024/04/20 08:21:20;;;;;;;1.42;0.60;;;;;;;;;;13520660;21;20008;-80
2024/04/20 08:26:22;;;;;;;1.77;0.50;;;;;;;;;;13524762;21;20003;-79
2024/04/20 08:31:24;;;;;;;2.00;0.93;;;;;;;;;;13524318;21;20021;-79
2024/04/20 08:36:25;;;;;;;2.03;0.80;;;;;;;;;;13522520;22;20004;-81
2024/04/20 08:41:26;;;;;;;;;;;;;;;;;;13525252;21;20021;-81
2024/04/20 08:46:27;;;;;;;1.58;0.70;;;;;;;;;;13517181;21;19922;-80
2024/04/20 08:51:31;;;;;;;2.70;0.68;;;;;;;;;;13517461;21;20302;-80
2024/04/20 08:56:33;;;;;;;1.52;0.80;;;;;;;;;;13517525;22;19993;-78
2024/04/20 09:01:36;;;;;;;1.80;0.60;;;;;;;;;;13518251;21;19993;-80
2024/04/20 09:06:37;;;;;;;1.45;0.60;;;;;;;;;;13517979;22;19997;-79
2024/04/20 09:11:38;;;;;;;1.65;0.70;;;;;;;;;;13519243;21;20076;-78
2024/04/20 09:16:40;;;;;;;1.55;0.55;;;;;;;;;;13519114;22;20063;-80
2024/04/20 09:21:41;;;;;;;3.25;0.95;;;;;;;;;;13517441;21;19997;-79
2024/04/20 09:26:50;;;;;;;3.08;1.55;;;;;;;;;;13515694;22;20007;-77
2024/04/20 09:31:52;;;;;;;3.75;0.98;;;;;;;;;;13514943;21;20000;-79
2024/04/20 09:36:54;;;;;;;0.70;0.57;;;;;;;;;;13520797;21;19997;-78
2024/04/20 09:41:57;;;;;;;1.00;0.60;;;;;;;;;;13514687;21;20041;-78
2024/04/20 09:46:59;;;;;;;5.22;1.30;;;;;;;;;;13516838;21;20290;-78
2024/04/20 09:52:14;;;;;;;2.08;0.70;;;;;;;;;;13517411;21;20310;-79
2024/04/20 09:57:18;;;;;;;1.55;0.75;;;;;;;;;;13516326;21;20005;-78
2024/04/20 10:02:20;;;;;;;1.35;0.70;;;;;;;;;;13516770;21;20313;-78
2024/04/20 10:07:21;;;;;;;1.92;0.80;;;;;;;;;;13524229;21;20302;-78
2024/04/20 10:12:23;;;;;;;4.50;0.60;;;;;;;;;;13527613;21;19996;-78
2024/04/20 10:17:27;;;;;;;2.42;0.70;;;;;;;;;;13511445;22;20004;-79
2024/04/20 10:22:29;;;;;;;1.77;0.80;;;;;;;;;;13517441;21;20050;-78
2024/04/20 10:27:33;;;;;;;2.17;0.90;;;;;;;;;;13524584;22;19993;-79
2024/04/20 10:32:34;;;;;;;1.75;0.50;;;;;;;;;;13528603;21;20068;-81
2024/04/20 10:37:36;;;;;;;2.08;0.80;;;;;;;;;;13530056;21;20004;-80
2024/04/20 10:42:37;;;;;;;2.10;0.70;;;;;;;;;;13520848;21;20428;-80
2024/04/20 10:47:39;;;;;;;1.90;0.65;;;;;;;;;;13478964;22;19997;-81
2024/04/20 10:52:40;;;;;;;2.67;1.00;;;;;;;;;;13522945;21;20000;-81
2024/04/20 10:57:42;;;;;;;2.15;0.85;;;;;;;;;;13526621;21;20004;-81
2024/04/20 11:02:43;;;;;;;4.20;0.90;;;;;;;;;;13525459;21;19989;-82
2024/04/20 11:07:44;;;;;;;1.92;0.90;;;;;;;;;;13535277;21;19997;-81
2024/04/20 11:12:45;;;;;;;2.13;0.90;;;;;;;;;;13541955;21;20132;-81
2024/04/20 11:17:47;;;;;;;1.55;0.80;;;;;;;;;;13534541;21;20045;-79
2024/04/20 11:22:50;;;;;;;1.48;0.88;;;;;;;;;;13542115;21;20049;-82
2024/04/20 11:27:53;;;;;;;1.90;0.60;;;;;;;;;;13529839;21;19993;-80
2024/04/20 11:32:58;;;;;;;1.25;0.60;;;;;;;;;;13527449;21;20386;-81
2024/04/20 11:38:03;;;;;;;4.93;0.70;;;;;;;;;;13522629;21;19996;-80
2024/04/20 11:43:04;;;;;;;0.85;0.50;;;;;;;;;;13522561;21;20336;-79
2024/04/20 11:48:09;;;;;;;1.30;0.50;;;;;;;;;;13524060;21;20025;-82
2024/04/20 11:58:30;;;;;;;1.83;0.53;;;;;;;;;;13531488;22;20009;-80
2024/04/20 12:03:31;;;;;;;2.60;0.85;;;;;;;;;;13524551;21;20433;-80
2024/04/20 12:08:32;;;;;;;2.55;0.80;;;;;;;;;;13518857;21;20004;-81
2024/04/20 12:13:35;;;;;;;;;;;;;;;;;;13519458;21;20004;-81
2024/04/20 12:18:36;;;;;;;2.72;0.70;;;;;;;;;;13519350;21;19928;-82
2024/04/20 12:23:37;;;;;;;;;;;;;;;;;;13519616;21;20007;-81
2024/04/20 12:28:38;;;;;;;1.65;0.70;;;;;;;;;;13537034;21;20218;-82
2024/04/20 12:40:00;;;;;;;2.28;0.60;;;;;;;;;;13523871;22;20000;-85
2024/04/20 12:45:31;;;;;;;2.40;0.60;;;;;;;;;;13517786;21;20021;-86
2024/04/20 12:50:41;;;;;;;;;;;;;;;;;;13516921;22;20454;-86
2024/04/20 13:07:51;;;;;;;1.48;0.57;;;;;;;;;;13521159;21;19985;-85
2024/04/20 13:30:34;;;;;;;0.97;0.40;;;;;;;;;;13537303;22;19997;-85
2024/04/20 14:22:30;;;;;;;1.95;0.57;;;;;;;;;;13532435;21;20001;-85
2024/04/20 14:28:35;;;;;;;2.58;0.93;;;;;;;;;;13205924;22;20024;-85
2024/04/20 14:34:04;;;;;;;1.73;0.60;;;;;;;;;;13165200;22;19991;-85
2024/04/20 14:50:34;;;;;;;1.55;0.52;;;;;;;;;;13204339;22;20000;-84
2024/04/20 15:01:43;;;;;;;1.95;0.47;;;;;;;;;;13101798;22;20046;-83
2024/04/20 15:07:23;;;;;;;1.70;0.68;;;;;;;;;;13084403;22;19996;-84
2024/04/20 15:24:07;;;;;;;1.83;0.60;;;;;;;;;;13414467;21;20514;-85
2024/04/20 15:35:12;;;;;;;2.78;0.85;;;;;;;;;;13532168;21;20029;-85
2024/04/20 15:40:13;;;;;;;2.55;0.90;;;;;;;;;;13560802;21;19990;-85
2024/04/20 15:57:05;;;;;;;0.77;0.47;;;;;;;;;;13529267;22;19989;-85
2024/04/20 16:07:39;;;;;;;1.70;0.60;;;;;;;;;;13525401;22;20302;-86
2024/04/20 16:24:22;;;;;;;1.25;0.63;;;;;;;;;;13518669;21;19989;-85
2024/04/20 16:29:58;;;;;;;1.45;0.63;;;;;;;;;;13519626;22;19993;-85
2024/04/20 16:46:34;;;;;;;2.05;0.50;;;;;;;;;;13518593;21;20380;-86
2024/04/20 16:58:00;;;;;;;1.17;0.55;;;;;;;;;;13521523;21;19993;-86
2024/04/20 17:03:58;;;;;;;1.20;0.40;;;;;;;;;;13206812;22;19998;-85
2024/04/20 17:25:46;;;;;;;1.60;0.50;;;;;;;;;;13199361;22;19999;-85
2024/04/20 17:31:20;;;;;;;0.70;0.35;;;;;;;;;;13162745;22;19994;-85
2024/04/20 18:22:47;;;;;;;0.93;0.40;;;;;;;;;;13518174;21;20404;-84
2024/04/20 18:33:47;;;;;;;1.80;0.88;;;;;;;;;;13347774;21;20012;-84
2024/04/20 18:38:49;;;;;;;2.10;1.08;;;;;;;;;;13640538;21;19992;-86
2024/04/20 18:43:50;;;;;;;1.83;0.70;;;;;;;;;;13654718;21;19992;-85
2024/04/20 18:48:51;;;;;;;;;;;;;;;;;;13774413;21;20065;-83
2024/04/20 18:53:53;;;;;;;0.70;0.47;;;;;;;;;;13747045;21;19920;-85
2024/04/20 18:58:54;;;;;;;1.38;0.60;;;;;;;;;;13701795;21;19999;-86
2024/04/20 19:03:55;;;;;;;1.20;0.40;;;;;;;;;;13769681;21;20149;-84
